Milwaukee, Wisconsin
Traffic Map
Current Weather Conditions
Milwaukee, Wisconsin
Few Clouds
Few Clouds
68°
Feels Like: 68°
Wind Chill: 68° Ceiling: Unl
Heat Index: 68° Visibility: 10mi
Dew Point: 44° Wind: 10mph
Humidity: 42% Direction: 150° (SSE)
Pressure: 30.09in Gusts: 0mph
Raw Report DataKMKE 242252Z 15009KT 10SM FEW050 FEW250 20/07 A3009 RMK AO2 SLP190 T02000067
Traffic Incident Summary
Active as of:
Severity:
Category:
InformationThere was an issue retrieving the traffic information for this location. Please try a different location or try again shortly.
Advertisements
Track Severe Weather on mobile